Time;durP1;ratioP1;P1;durP2;ratioP2;P2;SDS_P1;SDS_P2;PMS_P1;PMS_P2;Temp;Humidity;BMP_temperature;BMP_pressure;BME280_temperature;BME280_humidity;BME280_pressure;Samples;Min_cycle;Max_cycle;Signal;HPM_P1;HPM_P2
2022/03/13 00:00:38;;;;;;;51.65;22.08;;;-1.70;42.90;;;;;;6246150;23;19989;-76
2022/03/13 00:03:10;;;;;;;45.85;18.17;;;-1.80;43.00;;;;;;6246177;23;20032;-77
2022/03/13 00:05:40;;;;;;;37.47;15.73;;;-1.80;42.90;;;;;;6246205;23;19985;-75
2022/03/13 00:08:22;;;;;;;40.90;17.55;;;-1.80;43.00;;;;;;6246098;23;19997;-75
2022/03/13 00:10:53;;;;;;;43.50;17.05;;;-1.70;43.00;;;;;;6245918;23;19989;-80
2022/03/13 00:13:20;;;;;;;42.75;18.60;;;-1.70;42.80;;;;;;6246157;23;20040;-78
2022/03/13 00:15:47;;;;;;;49.63;20.25;;;-1.50;43.30;;;;;;6245980;23;19992;-77
2022/03/13 00:18:13;;;;;;;54.67;21.25;;;-1.80;43.10;;;;;;6245957;23;20044;-77
2022/03/13 00:20:40;;;;;;;;;;;-1.70;43.00;;;;;;6246391;23;20041;-78
2022/03/13 00:23:06;;;;;;;56.28;23.38;;;-1.70;43.10;;;;;;6245945;23;19900;-81
2022/03/13 00:25:33;;;;;;;65.57;28.17;;;-1.80;43.20;;;;;;6220230;23;20016;-77
2022/03/13 00:27:59;;;;;;;57.63;25.33;;;-1.90;43.30;;;;;;6245886;23;19997;-78
2022/03/13 00:30:24;;;;;;;;;;;-1.70;43.60;;;;;;6246434;23;19989;-76
2022/03/13 00:32:50;;;;;;;56.97;24.10;;;-1.80;43.80;;;;;;6220190;23;19900;-80
2022/03/13 00:35:16;;;;;;;56.78;21.98;;;-1.80;43.90;;;;;;6245981;23;19993;-77
2022/03/13 00:37:42;;;;;;;;;;;-2.00;44.10;;;;;;6246284;23;19995;-77
2022/03/13 00:40:10;;;;;;;46.25;18.77;;;-2.00;44.30;;;;;;6245873;23;19956;-77
2022/03/13 00:42:36;;;;;;;46.05;17.52;;;-2.10;44.50;;;;;;6220177;23;19993;-77
2022/03/13 00:45:02;;;;;;;45.83;18.17;;;-2.10;44.60;;;;;;6220196;23;19995;-75
2022/03/13 00:47:28;;;;;;;;;;;-2.00;44.70;;;;;;6246077;23;19993;-75
2022/03/13 00:49:54;;;;;;;74.50;25.92;;;-2.20;44.60;;;;;;6219746;23;19915;-78
2022/03/13 00:52:19;;;;;;;;;;;-2.20;44.60;;;;;;6246206;23;19985;-76
2022/03/13 00:54:45;;;;;;;60.15;20.48;;;-2.20;44.70;;;;;;6245633;23;19888;-78
2022/03/13 00:57:11;;;;;;;;;;;-2.20;44.60;;;;;;6246158;23;19995;-77
2022/03/13 00:59:37;;;;;;;74.78;24.33;;;-2.20;44.80;;;;;;6220091;23;19914;-77
2022/03/13 01:02:03;;;;;;;65.10;24.38;;;-2.30;45.10;;;;;;6245492;23;19996;-76
2022/03/13 01:04:28;;;;;;;;;;;-2.30;45.10;;;;;;6246220;23;20023;-76
2022/03/13 01:06:55;;;;;;;42.17;17.00;;;-2.30;45.00;;;;;;6245471;23;19896;-78
2022/03/13 01:09:20;;;;;;;33.08;15.35;;;-2.50;45.10;;;;;;6245589;23;20001;-75
2022/03/13 01:11:46;;;;;;;;;;;-2.60;45.20;;;;;;6220001;23;19995;-74
2022/03/13 01:14:12;;;;;;;28.75;11.45;;;-2.50;45.30;;;;;;6245633;23;19888;-75
2022/03/13 01:16:39;;;;;;;;;;;-2.60;45.20;;;;;;6246021;23;20007;-79
2022/03/13 02:17:11;;;;;;;29.75;13.25;;;-3.10;46.60;;;;;;6197430;23;20017;-83
2022/03/13 02:19:37;;;;;;;;;;;-3.20;46.80;;;;;;6244628;23;19993;-81
2022/03/13 02:22:03;;;;;;;24.55;10.45;;;-3.10;47.20;;;;;;6219031;23;19888;-80
2022/03/13 02:24:29;;;;;;;22.95;9.05;;;-3.20;47.40;;;;;;6219060;23;20019;-77
2022/03/13 02:27:00;;;;;;;;;;;-3.20;47.60;;;;;;6219340;23;20001;-80
2022/03/13 02:29:26;;;;;;;15.40;6.57;;;-3.20;47.90;;;;;;6244847;23;19904;-76
2022/03/13 02:31:53;;;;;;;17.95;6.68;;;-3.20;47.90;;;;;;6244794;23;20001;-81
2022/03/13 02:34:19;;;;;;;18.13;7.43;;;-3.10;48.00;;;;;;6244707;23;20052;-82
2022/03/13 02:36:49;;;;;;;27.90;10.60;;;-3.10;48.00;;;;;;6218609;23;19992;-81
2022/03/13 02:39:15;;;;;;;43.42;15.63;;;-3.10;47.70;;;;;;6244916;23;19984;-75
2022/03/13 02:41:41;;;;;;;86.28;26.75;;;-3.10;47.50;;;;;;6218967;23;19992;-80
2022/03/13 02:44:09;;;;;;;86.95;27.75;;;-3.10;47.50;;;;;;6244412;23;20053;-78
2022/03/13 02:46:56;;;;;;;74.13;25.33;;;-3.10;47.50;;;;;;6244777;23;20007;-77
2022/03/13 02:49:23;;;;;;;50.08;17.27;;;-3.10;47.40;;;;;;6219106;23;19996;-75
2022/03/13 02:51:51;;;;;;;40.38;13.70;;;-3.10;47.30;;;;;;6218990;23;19999;-78
2022/03/13 02:54:17;;;;;;;34.90;14.18;;;-3.20;47.40;;;;;;6244733;23;19984;-79
2022/03/13 02:56:45;;;;;;;44.08;15.98;;;-3.20;47.60;;;;;;6218753;23;20020;-83
2022/03/13 02:59:12;;;;;;;44.80;15.98;;;-3.20;48.10;;;;;;6244873;23;20008;-80
2022/03/13 03:01:39;;;;;;;47.30;14.88;;;-3.20;48.20;;;;;;6244732;23;20036;-79
2022/03/13 03:04:05;;;;;;;34.95;12.68;;;-3.20;48.10;;;;;;6244645;23;19985;-85
2022/03/13 03:06:33;;;;;;;30.63;11.98;;;-3.30;47.90;;;;;;6244364;23;20049;-74
2022/03/13 03:09:03;;;;;;;31.23;12.15;;;-3.20;48.70;;;;;;6219042;23;19997;-77
2022/03/13 03:11:35;;;;;;;28.55;10.60;;;-3.20;48.20;;;;;;6244742;23;20017;-78
2022/03/13 03:14:04;;;;;;;28.15;10.77;;;-3.20;48.20;;;;;;6219088;23;20039;-79
2022/03/13 03:16:30;;;;;;;28.60;10.40;;;-3.20;48.30;;;;;;6244703;23;20015;-78
2022/03/13 03:18:56;;;;;;;33.72;12.98;;;-3.20;48.40;;;;;;6190107;23;20052;-76
2022/03/13 03:21:22;;;;;;;29.98;12.10;;;-3.20;49.00;;;;;;6184627;23;20047;-78
2022/03/13 03:23:47;;;;;;;;;;;-3.20;48.30;;;;;;6184417;23;19994;-75
2022/03/13 03:26:13;;;;;;;46.45;16.92;;;-3.20;48.20;;;;;;6184573;23;19889;-73
2022/03/13 03:28:39;;;;;;;;;;;-3.30;48.20;;;;;;6184329;23;19998;-74
2022/03/13 03:31:04;;;;;;;93.75;32.10;;;-3.30;48.20;;;;;;6183823;23;19915;-77
2022/03/13 03:33:30;;;;;;;;;;;-3.30;48.20;;;;;;6185092;23;19990;-80
2022/03/13 03:35:56;;;;;;;87.68;30.73;;;-3.30;48.10;;;;;;6185746;23;19940;-74
2022/03/13 03:38:21;;;;;;;;;;;-3.30;48.20;;;;;;6186907;23;19990;-76
2022/03/13 03:40:48;;;;;;;81.20;29.02;;;-3.30;48.40;;;;;;6185729;23;19896;-77
2022/03/13 03:43:14;;;;;;;67.28;24.33;;;-3.40;48.60;;;;;;6186171;23;20014;-78
2022/03/13 03:45:40;;;;;;;51.97;19.48;;;-3.40;48.70;;;;;;6185440;23;19994;-82
2022/03/13 03:48:06;;;;;;;41.15;15.30;;;-3.40;49.00;;;;;;6185172;23;20013;-81
2022/03/13 03:50:31;;;;;;;;;;;-3.40;49.10;;;;;;6186460;23;19992;-74
2022/03/13 03:52:58;;;;;;;30.75;12.52;;;-3.40;49.20;;;;;;6186194;23;19913;-77
2022/03/13 03:55:25;;;;;;;49.88;16.80;;;-3.40;49.20;;;;;;6184302;23;20140;-84
2022/03/13 03:57:51;;;;;;;34.70;14.18;;;-3.40;49.20;;;;;;6184438;23;19994;-77
2022/03/13 04:00:18;;;;;;;42.83;17.08;;;-3.40;49.30;;;;;;6185542;23;19986;-77
2022/03/13 04:02:44;;;;;;;48.67;20.13;;;-3.40;49.40;;;;;;6186105;23;19994;-74
2022/03/13 04:05:10;;;;;;;41.38;17.27;;;-3.40;49.40;;;;;;6186017;23;19993;-77
2022/03/13 04:07:37;;;;;;;56.70;22.20;;;-3.40;49.60;;;;;;6186041;23;20078;-81
2022/03/13 04:10:08;;;;;;;56.13;23.75;;;-3.50;49.60;;;;;;6186003;23;19994;-79
2022/03/13 04:12:34;;;;;;;41.20;17.58;;;-3.40;49.60;;;;;;6184903;23;19997;-78
2022/03/13 04:15:00;;;;;;;;;;;-3.40;49.60;;;;;;6186479;23;19986;-77
2022/03/13 04:17:26;;;;;;;25.75;11.88;;;-3.40;49.40;;;;;;6195216;23;19923;-77
2022/03/13 04:19:51;;;;;;;;;;;-3.40;49.30;;;;;;6220782;23;19993;-80
2022/03/13 04:22:17;;;;;;;27.48;11.32;;;-3.40;49.20;;;;;;6220119;23;19895;-79
2022/03/13 04:24:42;;;;;;;;;;;-3.30;49.40;;;;;;6220554;23;19995;-81
2022/03/13 04:27:09;;;;;;;37.67;13.05;;;-3.30;49.30;;;;;;6219886;23;19896;-75
2022/03/13 04:29:34;;;;;;;30.88;12.65;;;-3.20;49.30;;;;;;6245711;23;19996;-80
2022/03/13 04:32:03;;;;;;;;;;;-3.20;49.10;;;;;;6220539;23;20017;-83
2022/03/13 04:34:29;;;;;;;27.05;10.65;;;-3.10;49.20;;;;;;6245345;23;19908;-83
2022/03/13 04:36:55;;;;;;;;;;;-3.10;49.30;;;;;;6246394;23;20078;-75
2022/03/13 04:39:21;;;;;;;25.27;11.05;;;-3.10;49.60;;;;;;6244928;23;19888;-79
2022/03/13 04:41:51;;;;;;;;;;;-3.00;49.50;;;;;;6219585;23;20016;-80
2022/03/13 04:44:18;;;;;;;26.30;10.35;;;-2.90;49.20;;;;;;6245857;23;19887;-75
2022/03/13 04:46:43;;;;;;;34.88;15.00;;;-2.90;49.20;;;;;;6220021;23;20001;-77
2022/03/13 04:49:09;;;;;;;;;;;-2.90;48.80;;;;;;6220501;23;19996;-75
2022/03/13 04:51:36;;;;;;;35.28;15.10;;;-2.80;48.90;;;;;;6219792;23;20651;-75
2022/03/13 04:54:02;;;;;;;33.10;12.15;;;-2.80;49.00;;;;;;6219823;23;20000;-79
2022/03/13 04:56:28;;;;;;;;;;;-2.70;48.80;;;;;;6245840;23;20008;-80
2022/03/13 04:58:53;;;;;;;20.75;9.75;;;-2.70;48.90;;;;;;6245765;23;19888;-75
2022/03/13 05:01:19;;;;;;;;;;;-2.60;48.90;;;;;;6220420;23;20090;-75
2022/03/13 05:03:45;;;;;;;19.95;8.57;;;-2.60;49.10;;;;;;6245658;23;19890;-75
2022/03/13 05:06:12;;;;;;;21.40;9.13;;;-2.60;48.90;;;;;;6245115;23;19989;-78
2022/03/13 05:08:39;;;;;;;20.15;10.02;;;-2.50;48.80;;;;;;6245598;23;19992;-78
2022/03/13 05:11:05;;;;;;;27.83;12.60;;;-2.50;48.90;;;;;;6245689;23;19988;-80
2022/03/13 05:13:31;;;;;;;;;;;-2.50;48.90;;;;;;6220083;23;20009;-76
2022/03/13 05:15:57;;;;;;;30.77;12.32;;;-2.40;48.90;;;;;;6245417;23;19891;-80
2022/03/13 05:18:23;;;;;;;;;;;-2.40;48.60;;;;;;6245758;23;20019;-77
2022/03/13 05:33:46;;;;;;;31.00;15.88;;;-1.80;48.60;;;;;;6241090;22;20015;-78
2022/03/13 05:36:13;;;;;;;;;;;-1.80;48.80;;;;;;6244844;23;19992;-74
2022/03/13 05:38:39;;;;;;;;;;;-1.60;48.50;;;;;;6245840;23;19888;-72
2022/03/13 05:41:06;;;;;;;30.65;14.98;;;-1.50;48.00;;;;;;6245462;23;19935;-73
2022/03/13 05:43:33;;;;;;;32.17;15.45;;;-1.40;48.10;;;;;;6245454;23;19984;-72
2022/03/13 05:45:59;;;;;;;40.35;20.60;;;-1.20;48.10;;;;;;6245299;23;19993;-74
2022/03/13 05:48:26;;;;;;;;;;;-1.10;47.90;;;;;;6245422;23;20054;-72
2022/03/13 05:50:52;;;;;;;33.10;16.83;;;-0.90;47.50;;;;;;6219467;23;19903;-75
2022/03/13 05:53:18;;;;;;;36.90;17.80;;;-0.70;47.20;;;;;;6245191;23;20032;-75
2022/03/13 05:55:44;;;;;;;;;;;-0.50;46.80;;;;;;6219907;23;20008;-73
2022/03/13 05:58:14;;;;;;;48.97;20.63;;;-0.20;45.70;;;;;;6219021;23;19911;-73
2022/03/13 06:00:40;;;;;;;63.47;25.02;;;0.20;44.90;;;;;;6244569;23;20020;-79
2022/03/13 06:03:06;;;;;;;67.32;29.52;;;0.80;44.10;;;;;;6219231;23;20017;-81
2022/03/13 06:05:35;;;;;;;72.85;32.50;;;1.30;43.20;;;;;;6243399;23;20011;-79
2022/03/13 06:08:03;;;;;;;72.72;31.20;;;1.80;42.80;;;;;;6243965;23;20001;-81
2022/03/13 06:10:29;;;;;;;63.15;29.67;;;2.10;42.10;;;;;;6245046;23;20012;-76
2022/03/13 06:12:55;;;;;;;55.60;25.95;;;2.50;41.80;;;;;;6244828;23;20023;-76
2022/03/13 06:15:20;;;;;;;55.20;25.35;;;2.70;40.70;;;;;;6219217;23;19985;-75
2022/03/13 06:51:05;;;;;;;16.13;8.45;;;10.30;25.30;;;;;;6215935;23;20029;-88
2022/03/13 06:53:31;;;;;;;15.35;8.00;;;11.00;23.80;;;;;;6222506;23;20000;-88
2022/03/13 06:55:57;;;;;;;;;;;11.70;22.40;;;;;;6213351;23;20011;-86
2022/03/13 06:58:22;;;;;;;16.70;5.72;;;12.20;20.90;;;;;;6211731;23;20329;-89
2022/03/13 07:00:48;;;;;;;;;;;12.60;20.70;;;;;;6211782;23;20028;-87
2022/03/13 07:03:15;;;;;;;7.97;4.43;;;13.10;19.70;;;;;;6211388;23;19904;-90
2022/03/13 07:05:41;;;;;;;7.53;4.22;;;13.30;19.50;;;;;;6184209;23;20039;-89
2022/03/13 07:08:07;;;;;;;6.82;4.10;;;13.50;18.70;;;;;;6210135;23;20087;-90
2022/03/13 07:10:32;;;;;;;;;;;13.70;18.70;;;;;;6185567;23;20106;-88
2022/03/13 07:12:59;;;;;;;8.80;3.85;;;14.20;18.10;;;;;;6185811;23;19900;-89
2022/03/13 07:15:26;;;;;;;9.73;3.88;;;14.20;18.50;;;;;;6212902;23;20009;-90
2022/03/13 07:17:53;;;;;;;8.40;3.80;;;14.30;18.20;;;;;;6213020;23;20024;-94
2022/03/13 07:20:22;;;;;;;9.52;4.63;;;14.40;18.10;;;;;;6213424;23;20030;-92
2022/03/13 07:22:47;;;;;;;11.38;4.65;;;14.60;18.10;;;;;;6185412;23;20095;-92
2022/03/13 07:25:14;;;;;;;;;;;15.00;17.90;;;;;;6213613;23;20039;-89
2022/03/13 07:27:40;;;;;;;8.00;4.93;;;15.30;17.30;;;;;;6213064;23;19912;-89
2022/03/13 07:30:08;;;;;;;9.18;5.28;;;15.20;17.50;;;;;;6212449;23;20028;-91
2022/03/13 07:32:35;;;;;;;14.77;5.13;;;15.80;17.30;;;;;;6212821;23;20004;-90
2022/03/13 07:35:01;;;;;;;8.75;4.63;;;16.00;16.80;;;;;;6186164;23;20005;-91
2022/03/13 07:37:27;;;;;;;14.05;5.30;;;16.20;16.50;;;;;;6186111;23;20012;-91
2022/03/13 07:39:53;;;;;;;9.60;4.68;;;16.40;16.40;;;;;;6213081;23;20009;-89
2022/03/13 07:42:18;;;;;;;7.15;3.95;;;16.60;16.20;;;;;;6213241;23;20485;-92
2022/03/13 07:44:44;;;;;;;11.05;5.07;;;16.70;15.80;;;;;;6187697;23;20073;-92
2022/03/13 07:47:10;;;;;;;10.43;5.85;;;17.00;15.50;;;;;;6212703;23;20016;-94
2022/03/13 07:49:36;;;;;;;12.43;6.90;;;16.90;14.90;;;;;;6212094;23;20430;-91
2022/03/13 07:52:02;;;;;;;10.07;5.38;;;17.20;14.50;;;;;;6212509;23;20083;-91
2022/03/13 07:54:27;;;;;;;7.00;4.15;;;17.00;14.70;;;;;;6213785;23;20007;-94
2022/03/13 07:56:53;;;;;;;8.07;4.63;;;17.00;15.00;;;;;;6214675;23;20009;-92
2022/03/13 07:59:18;;;;;;;7.53;4.38;;;17.30;15.10;;;;;;6188487;23;20009;-94
2022/03/13 08:01:44;;;;;;;10.68;4.43;;;17.80;14.50;;;;;;6189077;23;20055;-93
2022/03/13 08:04:10;;;;;;;7.18;3.85;;;18.00;14.10;;;;;;6213503;23;20012;-93
2022/03/13 08:06:37;;;;;;;7.63;4.28;;;18.00;14.10;;;;;;6213402;23;20062;-91
2022/03/13 08:09:04;;;;;;;8.63;4.07;;;17.90;14.00;;;;;;6213692;23;20005;-91
2022/03/13 08:11:29;;;;;;;6.88;4.10;;;17.70;13.90;;;;;;6187201;23;20004;-93
2022/03/13 08:13:55;;;;;;;12.07;4.70;;;18.20;13.90;;;;;;6212681;23;20034;-92
2022/03/13 08:16:21;;;;;;;9.13;4.03;;;17.70;13.70;;;;;;6213196;23;20457;-91
2022/03/13 08:18:47;;;;;;;7.22;4.30;;;17.30;13.90;;;;;;6186520;23;20036;-91
2022/03/13 08:21:13;;;;;;;8.88;4.10;;;17.10;14.10;;;;;;6213770;23;20004;-89
2022/03/13 08:23:39;;;;;;;9.02;4.40;;;17.00;14.10;;;;;;6186965;23;20452;-91
2022/03/13 08:26:05;;;;;;;6.18;3.45;;;16.90;14.10;;;;;;6187087;23;20028;-89
2022/03/13 08:28:31;;;;;;;6.32;3.63;;;16.90;14.10;;;;;;6187002;23;20438;-91
2022/03/13 08:30:58;;;;;;;6.57;3.70;;;17.40;14.00;;;;;;6212765;23;20004;-90
2022/03/13 08:33:24;;;;;;;6.32;3.85;;;17.40;13.90;;;;;;6212585;23;20431;-89
2022/03/13 08:35:49;;;;;;;11.93;4.25;;;17.70;13.50;;;;;;6213657;23;20027;-91
2022/03/13 08:38:16;;;;;;;5.80;3.42;;;17.30;13.30;;;;;;6214785;23;20005;-92
2022/03/13 08:40:42;;;;;;;13.25;5.00;;;16.60;13.60;;;;;;6214362;23;20009;-92
2022/03/13 08:43:07;;;;;;;6.30;3.55;;;16.40;13.90;;;;;;6188172;23;20323;-90
2022/03/13 08:45:33;;;;;;;6.20;3.58;;;16.20;14.10;;;;;;6214184;23;20001;-92
2022/03/13 08:47:59;;;;;;;7.78;3.45;;;16.30;14.10;;;;;;6186435;23;20128;-90
2022/03/13 08:50:25;;;;;;;6.32;3.88;;;16.30;14.10;;;;;;6213145;23;20013;-93
2022/03/13 08:52:50;;;;;;;6.65;3.38;;;16.60;13.80;;;;;;6212317;23;20446;-92
2022/03/13 08:55:18;;;;;;;12.93;3.63;;;16.90;13.90;;;;;;6213153;23;20008;-90
2022/03/13 08:57:45;;;;;;;6.63;3.72;;;17.20;13.70;;;;;;6212221;23;20008;-90
2022/03/13 09:00:16;;;;;;;6.45;3.55;;;17.50;13.60;;;;;;6210916;23;20071;-88
2022/03/13 09:02:43;;;;;;;9.40;3.90;;;17.70;13.50;;;;;;6212160;23;20004;-90
2022/03/13 09:05:08;;;;;;;5.30;3.45;;;17.90;13.20;;;;;;6212515;23;20008;-91
2022/03/13 09:07:34;;;;;;;5.88;3.45;;;17.90;13.50;;;;;;6184463;23;20051;-89
2022/03/13 09:10:02;;;;;;;5.25;2.90;;;18.30;13.10;;;;;;6211303;23;20046;-89
2022/03/13 09:12:30;;;;;;;6.50;3.30;;;18.40;12.80;;;;;;6211637;23;20001;-89
2022/03/13 09:14:56;;;;;;;6.80;3.33;;;18.40;12.80;;;;;;6210250;23;20004;-90
2022/03/13 09:17:22;;;;;;;5.47;3.53;;;18.30;12.90;;;;;;6184095;23;20434;-89
2022/03/13 09:19:48;;;;;;;8.73;3.45;;;18.30;12.60;;;;;;6210687;23;20008;-90
2022/03/13 09:22:14;;;;;;;6.18;3.83;;;18.50;12.80;;;;;;6210546;23;20807;-89
2022/03/13 09:24:40;;;;;;;8.57;3.50;;;18.10;12.10;;;;;;6211201;23;20004;-88
2022/03/13 09:27:06;;;;;;;5.47;3.35;;;17.90;12.70;;;;;;6210915;23;20020;-87
2022/03/13 09:29:32;;;;;;;7.85;3.53;;;18.40;12.90;;;;;;6210874;23;20007;-87
2022/03/13 09:31:57;;;;;;;6.80;3.47;;;18.60;12.60;;;;;;6210294;23;20054;-85
2022/03/13 09:34:24;;;;;;;6.97;3.40;;;18.40;12.80;;;;;;6210560;23;20051;-86
2022/03/13 09:36:50;;;;;;;5.65;3.50;;;18.40;13.00;;;;;;6210407;23;20054;-88
2022/03/13 09:39:15;;;;;;;9.18;3.88;;;18.60;12.80;;;;;;6211511;23;20429;-88
2022/03/13 09:41:42;;;;;;;6.00;3.63;;;18.90;13.30;;;;;;6212058;23;20000;-89
2022/03/13 09:44:07;;;;;;;7.82;3.63;;;19.10;12.60;;;;;;6212300;23;20008;-89
2022/03/13 09:46:37;;;;;;;7.05;3.95;;;19.30;12.30;;;;;;6213342;23;20008;-89
2022/03/13 09:49:04;;;;;;;22.17;15.57;;;19.00;11.90;;;;;;6213105;23;20032;-91
2022/03/13 09:51:30;;;;;;;8.18;4.45;;;18.40;12.00;;;;;;6212452;23;20088;-91
2022/03/13 09:53:57;;;;;;;9.85;4.90;;;18.50;12.80;;;;;;6185780;23;20379;-91
2022/03/13 09:56:23;;;;;;;5.78;3.70;;;18.80;12.60;;;;;;6212278;23;20055;-89
2022/03/13 09:58:48;;;;;;;5.45;3.83;;;19.00;12.70;;;;;;6212873;23;20019;-89
2022/03/13 10:01:14;;;;;;;9.93;4.32;;;19.10;12.60;;;;;;6212461;23;20009;-90
2022/03/13 10:03:40;;;;;;;8.10;4.38;;;19.30;12.70;;;;;;6212019;23;20413;-89
2022/03/13 10:06:06;;;;;;;7.68;4.28;;;19.40;12.50;;;;;;6213031;23;20423;-88
2022/03/13 10:08:33;;;;;;;7.35;4.03;;;19.60;12.50;;;;;;6186698;23;20016;-90
2022/03/13 10:10:59;;;;;;;7.88;3.92;;;19.40;12.30;;;;;;6212827;23;20085;-90
2022/03/13 10:13:41;;;;;;;9.55;3.95;;;19.40;11.80;;;;;;6184621;23;20008;-90
2022/03/13 10:16:15;;;;;;;9.88;3.88;;;19.20;11.70;;;;;;6212727;23;20011;-89
2022/03/13 10:18:41;;;;;;;6.15;3.78;;;19.10;12.30;;;;;;6212623;23;20008;-88
2022/03/13 10:21:19;;;;;;;6.90;3.80;;;19.40;12.40;;;;;;6212693;23;20588;-89
2022/03/13 10:23:48;;;;;;;9.13;6.30;;;19.30;12.50;;;;;;6212731;23;20008;-87
2022/03/13 10:26:16;;;;;;;8.07;4.28;;;19.00;11.80;;;;;;6212676;23;20001;-89
2022/03/13 10:28:43;;;;;;;13.45;3.78;;;18.90;12.60;;;;;;6212724;23;20447;-89
2022/03/13 10:31:17;;;;;;;9.65;3.65;;;19.30;12.50;;;;;;6212302;23;20004;-88
2022/03/13 10:33:43;;;;;;;8.13;3.90;;;19.80;12.00;;;;;;6185907;23;20077;-87
2022/03/13 10:36:14;;;;;;;5.88;3.95;;;19.70;12.40;;;;;;6212292;23;20025;-91
2022/03/13 10:38:40;;;;;;;6.35;3.33;;;19.70;12.00;;;;;;6212007;23;20005;-88
2022/03/13 10:41:10;;;;;;;5.57;3.53;;;19.70;12.50;;;;;;6212170;23;20005;-90
2022/03/13 10:43:52;;;;;;;8.52;3.88;;;19.30;12.40;;;;;;6227099;23;19993;-81
2022/03/13 10:46:32;;;;;;;7.03;4.10;;;18.60;12.40;;;;;;6220672;23;20013;-75
2022/03/13 10:48:59;;;;;;;5.30;3.47;;;17.50;12.90;;;;;;6221259;23;19989;-74
2022/03/13 10:51:38;;;;;;;9.50;4.00;;;16.20;13.30;;;;;;6246865;23;20020;-76
2022/03/13 10:54:08;;;;;;;6.55;3.63;;;15.60;14.10;;;;;;6240294;23;19989;-74
2022/03/13 10:56:34;;;;;;;10.32;3.70;;;15.00;14.20;;;;;;6246912;23;20013;-75
2022/03/13 10:59:17;;;;;;;7.65;4.15;;;13.90;14.70;;;;;;6221262;23;20008;-74
2022/03/13 11:01:42;;;;;;;8.43;4.47;;;13.50;15.20;;;;;;6246864;23;19984;-73
2022/03/13 11:04:09;;;;;;;;;;;13.30;15.70;;;;;;6221581;23;20004;-74
2022/03/13 11:06:35;;;;;;;10.27;4.43;;;13.20;15.90;;;;;;6246881;23;20927;-75
2022/03/13 11:09:02;;;;;;;7.28;3.72;;;12.90;15.60;;;;;;6246842;23;19988;-75
2022/03/13 11:11:28;;;;;;;10.68;4.57;;;12.70;15.80;;;;;;6246806;23;19988;-74
2022/03/13 11:14:01;;;;;;;6.18;3.70;;;12.60;15.90;;;;;;6246644;23;19985;-79
2022/03/13 11:16:31;;;;;;;7.72;4.30;;;12.40;16.20;;;;;;6246538;23;20004;-77
2022/03/13 11:19:01;;;;;;;6.45;3.47;;;12.30;16.70;;;;;;6246578;23;19989;-76
2022/03/13 11:21:27;;;;;;;7.88;4.10;;;12.20;16.60;;;;;;6246792;23;20028;-74
2022/03/13 11:23:53;;;;;;;16.77;10.55;;;12.10;16.50;;;;;;6246678;23;19985;-75
2022/03/13 11:26:22;;;;;;;;;;;12.10;16.60;;;;;;6246976;23;19999;-79
2022/03/13 11:28:49;;;;;;;8.88;5.03;;;12.00;16.40;;;;;;6246644;23;19931;-75
2022/03/13 11:31:36;;;;;;;12.60;8.20;;;11.80;16.10;;;;;;6246469;23;20049;-78
2022/03/13 11:34:20;;;;;;;16.33;8.48;;;11.40;16.40;;;;;;6246679;23;19985;-75
2022/03/13 11:36:47;;;;;;;19.83;10.43;;;11.10;16.40;;;;;;6246612;23;19988;-75
2022/03/13 11:39:26;;;;;;;9.90;5.43;;;11.10;17.20;;;;;;6246616;23;20011;-74
2022/03/13 11:41:53;;;;;;;9.40;5.15;;;11.10;17.20;;;;;;6246577;23;20009;-78
2022/03/13 11:44:21;;;;;;;8.73;4.28;;;11.20;17.30;;;;;;6246497;23;19989;-75
2022/03/13 11:46:48;;;;;;;8.73;4.30;;;11.30;16.80;;;;;;6220668;23;20008;-77
2022/03/13 11:49:26;;;;;;;12.05;7.47;;;11.10;16.80;;;;;;6220780;23;19996;-76
2022/03/13 11:52:10;;;;;;;9.52;4.57;;;11.10;16.90;;;;;;6246279;23;20008;-74
2022/03/13 11:54:46;;;;;;;10.43;3.97;;;11.10;17.20;;;;;;6246108;23;19997;-76
2022/03/13 11:57:17;;;;;;;8.88;3.95;;;11.20;17.30;;;;;;6246522;23;20013;-75
2022/03/13 11:59:48;;;;;;;8.75;3.70;;;11.30;17.40;;;;;;6246429;23;19984;-75
2022/03/13 12:02:40;;;;;;;15.60;4.45;;;11.30;17.00;;;;;;6220548;23;19997;-75
2022/03/13 12:05:27;;;;;;;14.00;7.72;;;11.20;16.50;;;;;;6246217;23;19984;-77
2022/03/13 12:08:04;;;;;;;8.65;4.68;;;10.90;16.80;;;;;;6246236;23;19992;-74
2022/03/13 12:10:32;;;;;;;8.55;5.38;;;10.70;17.10;;;;;;6246327;23;20053;-76
2022/03/13 12:13:06;;;;;;;9.15;5.82;;;10.80;17.20;;;;;;6246299;23;19988;-74
2022/03/13 12:15:31;;;;;;;9.23;6.03;;;10.70;17.30;;;;;;6246302;23;20080;-75
2022/03/13 19:22:57;;;;;;;27.60;12.60;;;2.30;26.80;;;;;;6212983;23;20031;-76
2022/03/13 19:25:22;;;;;;;23.40;10.68;;;2.30;26.70;;;;;;6244501;23;20040;-79
2022/03/13 19:27:53;;;;;;;41.88;17.08;;;2.30;27.00;;;;;;6243491;23;20028;-78
2022/03/13 19:30:20;;;;;;;38.88;17.85;;;2.30;27.00;;;;;;6242895;23;20024;-80
2022/03/13 19:32:46;;;;;;;39.50;16.48;;;2.20;27.80;;;;;;6243957;23;20044;-79
2022/03/13 19:35:12;;;;;;;40.70;16.95;;;2.10;27.70;;;;;;6238508;23;20024;-78
2022/03/13 19:37:41;;;;;;;;;;;2.00;28.00;;;;;;6217168;23;20020;-78
2022/03/13 19:40:08;;;;;;;51.83;20.80;;;2.00;28.20;;;;;;6240284;23;19888;-78
2022/03/13 19:42:34;;;;;;;43.40;18.90;;;1.90;28.20;;;;;;6234169;23;20004;-78
2022/03/13 19:45:01;;;;;;;44.85;19.73;;;1.80;28.30;;;;;;6214973;23;20040;-80
2022/03/13 19:47:29;;;;;;;51.55;21.23;;;1.70;28.30;;;;;;6241980;23;20008;-77
2022/03/13 19:49:57;;;;;;;45.67;19.65;;;1.80;28.40;;;;;;6214514;23;19997;-78
2022/03/13 19:52:23;;;;;;;48.83;20.30;;;1.80;28.40;;;;;;6209936;23;20023;-78
2022/03/13 19:54:48;;;;;;;51.03;23.10;;;1.70;28.50;;;;;;6235750;23;20466;-78
2022/03/13 19:57:15;;;;;;;;;;;1.70;28.60;;;;;;6216869;23;19993;-78
2022/03/13 19:59:41;;;;;;;48.42;22.50;;;1.70;28.50;;;;;;6241001;23;19900;-78
2022/03/13 20:02:07;;;;;;;43.65;19.08;;;1.60;28.40;;;;;;6241852;23;20019;-79
2022/03/13 20:04:34;;;;;;;44.15;19.10;;;1.50;28.60;;;;;;6241847;23;19989;-80
2022/03/13 20:07:01;;;;;;;44.38;19.98;;;1.50;28.70;;;;;;6215091;23;20008;-79
2022/03/13 20:09:27;;;;;;;41.47;19.30;;;1.50;28.80;;;;;;6243070;23;20035;-79
2022/03/13 20:11:56;;;;;;;46.92;21.88;;;1.40;28.80;;;;;;6244102;23;20010;-78
2022/03/13 20:14:22;;;;;;;33.47;15.48;;;1.50;29.20;;;;;;6186850;23;20021;-79
2022/03/13 20:16:48;;;;;;;41.47;20.45;;;1.50;29.20;;;;;;6213814;23;20020;-80
2022/03/13 20:19:14;;;;;;;55.47;24.77;;;1.50;29.00;;;;;;6188525;23;19993;-81
2022/03/13 20:21:40;;;;;;;;;;;1.40;28.90;;;;;;6189620;23;20000;-79
2022/03/13 20:24:06;;;;;;;72.63;28.65;;;1.40;29.10;;;;;;6188080;23;19982;-77
2022/03/13 20:26:32;;;;;;;59.88;25.35;;;1.40;29.20;;;;;;6213764;23;19997;-80
2022/03/13 20:28:58;;;;;;;53.10;22.67;;;1.40;29.40;;;;;;6213990;23;20016;-79
2022/03/13 20:31:26;;;;;;;72.88;28.13;;;1.40;29.50;;;;;;6212894;23;20005;-78
2022/03/13 20:33:52;;;;;;;56.65;23.33;;;1.40;29.60;;;;;;6188744;23;19993;-79
2022/03/13 20:36:19;;;;;;;51.55;22.90;;;1.30;29.70;;;;;;6214695;23;19993;-79
2022/03/13 20:38:45;;;;;;;45.00;19.02;;;1.20;29.80;;;;;;6213679;23;20029;-79
2022/03/13 20:41:12;;;;;;;54.30;23.35;;;1.20;30.00;;;;;;6186850;23;19993;-80
2022/03/13 20:43:37;;;;;;;66.78;27.67;;;1.00;30.00;;;;;;6213733;23;19993;-78
2022/03/13 20:46:03;;;;;;;90.82;31.75;;;1.00;30.30;;;;;;6214981;23;20051;-79
2022/03/13 20:48:29;;;;;;;59.42;24.50;;;1.00;30.30;;;;;;6214816;23;20009;-78
2022/03/13 20:50:55;;;;;;;;;;;1.00;30.50;;;;;;6215143;23;20005;-80
2022/03/13 20:53:22;;;;;;;65.03;25.08;;;1.00;30.80;;;;;;6215230;23;19888;-79
2022/03/13 20:55:48;;;;;;;75.78;32.38;;;1.10;30.50;;;;;;6213305;23;20065;-80
2022/03/13 20:58:14;;;;;;;80.25;33.22;;;1.00;30.60;;;;;;6213724;23;19985;-78
2022/03/13 21:00:41;;;;;;;68.47;27.13;;;1.00;30.60;;;;;;6213489;23;19991;-80
2022/03/13 21:03:07;;;;;;;61.63;24.70;;;0.80;30.80;;;;;;6213421;23;20053;-80
2022/03/13 21:05:33;;;;;;;;;;;0.80;31.00;;;;;;6212712;23;20005;-80
2022/03/13 21:07:58;;;;;;;41.65;16.15;;;0.80;31.20;;;;;;6213700;23;19903;-79
2022/03/13 21:10:24;;;;;;;;;;;0.80;31.40;;;;;;6215690;23;19981;-79
2022/03/13 21:12:52;;;;;;;38.95;15.13;;;0.80;31.40;;;;;;6214856;23;19888;-78
2022/03/13 22:12:58;;;;;;;41.60;15.75;;;0.30;33.30;;;;;;6182217;23;20005;-82
2022/03/13 22:17:50;;;;;;;46.40;18.23;;;0.30;33.10;;;;;;6213597;23;19968;-79
2022/03/13 22:20:16;;;;;;;50.88;17.65;;;0.30;33.20;;;;;;6181166;23;19989;-81
2022/03/13 22:22:42;;;;;;;34.88;14.55;;;0.40;33.30;;;;;;6209675;23;19981;-81
2022/03/13 22:25:09;;;;;;;25.73;11.15;;;0.30;33.40;;;;;;6209145;23;20012;-80
2022/03/13 22:27:35;;;;;;;33.42;13.68;;;0.40;33.20;;;;;;6205870;23;19985;-81
2022/03/13 22:30:09;;;;;;;;;;;0.50;32.90;;;;;;6178748;23;20039;-80
2022/03/13 22:32:35;;;;;;;30.08;12.82;;;0.60;33.50;;;;;;6207185;23;19911;-81
2022/03/13 22:35:00;;;;;;;;;;;0.70;32.60;;;;;;6211651;23;20077;-80
2022/03/13 22:37:26;;;;;;;57.42;21.73;;;0.60;32.80;;;;;;6209075;23;19884;-78
2022/03/13 22:39:52;;;;;;;66.22;24.23;;;0.60;32.90;;;;;;6183134;23;19981;-81